EHSC

Goeree Le Sea

Goeree Le Sea, The Netherlands
METAR EHSC 180225Z AUTO 35029KT 9000 ///////// 09/04 Q1017 W08/H19
Observed Flight Rules
Dec-18 @ 02:25 UTC (37 minutes ago)
Wind Visibility
350° at 29 knots 8,996 meters
Temperatures Readings
Current 9°C / 48°F
Dewpoint 4°C / 39°F
Humidity 71%
Altimeter 30.03" Hg
Pressure 1017 hPa
Elevation 50
METAR EHSC 180225Z AUTO 35029KT 9000 ///////// 09/04 Q1017 W08/H19
Observed Flight Rules
Dec-18 @ 02:25 UTC
(37 minutes ago)
Wind Visibility
350° at 29 knots 8,996 meters
Temperature Dewpoint
9°C / 48°F 4°C / 39°F
Humidity Altimeter Pressure
71% 30.03" Hg 1017 hPa